Time;durP1;ratioP1;P1;durP2;ratioP2;P2;SDS_P1;SDS_P2;PMS_P1;PMS_P2;Temp;Humidity;BMP_temperature;BMP_pressure;BME280_temperature;BME280_humidity;BME280_pressure;Samples;Min_cycle;Max_cycle;Signal;HPM_P1;HPM_P2
2023/11/25 00:00:55;;;;;;;;;;;2.70;1.00;;;;;;5065053;28;20162;-75
2023/11/25 00:03:49;;;;;;;;;;;2.70;1.00;;;;;;5074677;28;20161;-76
2023/11/25 00:06:20;;;;;;;;;;;2.70;1.00;;;;;;5068588;28;20212;-75
2023/11/25 00:14:51;;;;;;;;;;;2.80;1.00;;;;;;5086522;28;20671;-78
2023/11/25 00:17:28;;;;;;;;;;;2.80;1.00;;;;;;5063700;28;20153;-78
2023/11/25 00:20:25;;;;;;;;;;;2.80;1.00;;;;;;5075653;28;20200;-78
2023/11/25 00:25:54;;;;;;;;;;;2.80;1.00;;;;;;5065176;28;20793;-78
2023/11/25 00:31:04;;;;;;;;;;;2.70;1.00;;;;;;5077219;28;20183;-78
2023/11/25 00:39:27;;;;;;;;;;;2.60;1.00;;;;;;5085073;28;20201;-78
2023/11/25 00:42:14;;;;;;;;;;;2.50;1.00;;;;;;5078185;28;20204;-78
2023/11/25 00:50:49;;;;;;;;;;;2.50;1.00;;;;;;5062349;28;20225;-78
2023/11/25 00:53:25;;;;;;;;;;;2.50;1.00;;;;;;5075679;28;20168;-78
2023/11/25 00:59:09;;;;;;;;;;;2.40;1.00;;;;;;5082669;28;20244;-75
2023/11/25 01:01:49;;;;;;;;;;;;;;;;;;5083983;28;20172;-75
2023/11/25 01:04:19;;;;;;;;;;;2.40;1.00;;;;;;5074968;28;20243;-76
2023/11/25 01:06:55;;;;;;;;;;;2.40;1.00;;;;;;5078253;28;20171;-75
2023/11/25 01:09:43;;;;;;;;;;;2.40;1.00;;;;;;5065954;28;20149;-75
2023/11/25 01:12:10;;;;;;;;;;;2.40;1.00;;;;;;5081511;28;20153;-76
2023/11/25 01:14:36;;;;;;;;;;;2.50;1.00;;;;;;5083267;28;20634;-75
2023/11/25 01:17:13;;;;;;;;;;;2.50;1.00;;;;;;5086495;28;20157;-76
2023/11/25 01:19:39;;;;;;;;;;;2.50;1.00;;;;;;5068087;28;20158;-75
2023/11/25 01:22:07;;;;;;;;;;;2.50;1.00;;;;;;5067461;28;20259;-76
2023/11/25 01:24:50;;;;;;;;;;;2.50;1.00;;;;;;5071893;28;20149;-76
2023/11/25 01:27:16;;;;;;;;;;;2.50;1.00;;;;;;5072002;28;20235;-75
2023/11/25 01:35:48;;;;;;;;;;;2.60;1.00;;;;;;5060882;28;20203;-78
2023/11/25 01:38:37;;;;;;;;;;;2.50;1.00;;;;;;5085235;28;20152;-78
2023/11/25 01:44:07;;;;;;;;;;;2.50;1.00;;;;;;5085857;28;20179;-78
2023/11/25 01:47:07;;;;;;;;;;;2.40;1.00;;;;;;5093885;28;20149;-78
2023/11/25 01:52:38;;;;;;;;;;;2.40;1.00;;;;;;5074132;28;20179;-78
2023/11/25 01:55:11;;;;;;;;;;;2.30;1.00;;;;;;5086390;28;20160;-78
2023/11/25 02:03:25;;;;;;;;;;;2.10;1.00;;;;;;5075877;28;20218;-78
2023/11/25 02:08:54;;;;;;;;;;;1.90;1.00;;;;;;5059166;28;20167;-78
2023/11/25 02:20:10;;;;;;;;;;;;;;;;;;5090302;28;20147;-79
2023/11/25 02:25:55;;;;;;;;;;;1.40;1.00;;;;;;5077596;28;20198;-79
2023/11/25 02:28:26;;;;;;;;;;;1.20;1.00;;;;;;5080599;28;20153;-78
2023/11/25 02:37:25;;;;;;;;;;;1.00;1.00;;;;;;5087091;28;20160;-79
2023/11/25 02:40:23;;;;;;;;;;;0.90;1.00;;;;;;5060048;28;20239;-79
2023/11/25 02:42:50;;;;;;;;;;;0.80;1.00;;;;;;5091530;28;20652;-78
2023/11/25 02:57:34;;;;;;;;;;;;;;;;;;5081253;28;20558;-78
2023/11/25 03:06:02;;;;;;;;;;;;;;;;;;5012961;28;20637;-79
2023/11/25 03:08:43;;;;;;;;;;;0.50;1.00;;;;;;5011574;28;20176;-79
2023/11/25 03:13:55;;;;;;;;;;;0.60;1.00;;;;;;5014537;28;21090;-79
2023/11/25 03:16:43;;;;;;;;;;;0.70;1.00;;;;;;5009795;28;20265;-79
2023/11/25 03:22:30;;;;;;;;;;;1.10;1.90;;;;;;5010890;28;20606;-79
2023/11/25 03:25:27;;;;;;;;;;;1.30;2.40;;;;;;4982715;28;20209;-79
2023/11/25 03:31:27;;;;;;;;;;;1.60;2.30;;;;;;5014536;28;20185;-76
2023/11/25 03:33:52;;;;;;;0.30;0.30;;;1.70;1.00;;;;;;5011277;28;20679;-76
2023/11/25 03:42:14;;;;;;;;;;;2.10;1.00;;;;;;5089046;28;20178;-76
2023/11/25 03:47:25;;;;;;;;;;;;;;;;;;5075153;28;20528;-76
2023/11/25 03:50:08;;;;;;;;;;;;;;;;;;5075560;28;20137;-76
2023/11/25 03:58:40;;;;;;;;;;;;;;;;;;5078160;28;20248;-75
2023/11/25 04:01:37;;;;;;;;;;;2.70;1.00;;;;;;5079342;28;20584;-75
2023/11/25 04:04:13;;;;;;;;;;;2.80;1.00;;;;;;5071727;28;20156;-75
2023/11/25 04:06:39;;;;;;;;;;;2.80;1.00;;;;;;5074439;28;20173;-75
2023/11/25 04:09:05;;;;;;;;;;;2.80;1.00;;;;;;5095121;28;20149;-75
2023/11/25 04:11:43;;;;;;;;;;;2.80;1.00;;;;;;5078615;28;20175;-76
2023/11/25 04:14:25;;;;;;;;;;;2.90;1.00;;;;;;5074912;28;20153;-78
2023/11/25 04:32:31;;;;;;;;;;;3.20;1.00;;;;;;5079461;28;20197;-75
2023/11/25 04:35:25;;;;;;;;;;;3.30;1.00;;;;;;5080205;28;20343;-75
2023/11/25 04:38:13;;;;;;;;;;;3.40;1.00;;;;;;5069432;28;20208;-77
2023/11/25 04:40:40;;;;;;;0.60;0.60;;;;;;;;;;5084304;28;20346;-75
2023/11/25 04:43:31;;;;;;;0.90;0.90;;;3.40;1.00;;;;;;5068889;28;20826;-75
2023/11/25 04:46:19;;;;;;;;;;;3.50;1.00;;;;;;5067732;28;20033;-76
2023/11/25 04:48:50;;;;;;;;;;;;;;;;;;5087194;28;20148;-76
2023/11/25 04:54:18;;;;;;;;;;;3.60;1.00;;;;;;5073553;28;20570;-76
2023/11/25 04:59:43;;;;;;;;;;;3.70;1.00;;;;;;5078321;28;20182;-75
2023/11/25 05:02:09;;;;;;;;;;;3.70;1.00;;;;;;5091392;28;20172;-75
2023/11/25 05:04:49;;;;;;;;;;;;;;;;;;5073766;28;20149;-75
2023/11/25 05:13:04;;;;;;;;;;;3.80;1.00;;;;;;5073830;28;20510;-74
2023/11/25 05:18:19;;;;;;;;;;;3.90;1.00;;;;;;5063075;28;20685;-75
2023/11/25 05:23:30;;;;;;;;;;;3.80;1.00;;;;;;5071504;28;20222;-75
2023/11/25 05:29:00;;;;;;;;;;;;;;;;;;5079954;28;20191;-75
2023/11/25 05:34:32;;;;;;;;;;;3.40;1.00;;;;;;5073552;28;20209;-78
2023/11/25 05:37:03;;;;;;;;;;;3.40;1.00;;;;;;5060790;28;20207;-77
2023/11/25 05:39:54;;;;;;;;;;;3.30;1.00;;;;;;5085885;28;20542;-80
2023/11/25 05:45:08;;;;;;;;;;;3.30;1.00;;;;;;5073645;28;19924;-80
2023/11/25 05:50:37;;;;;;;;;;;3.10;1.00;;;;;;5077775;28;19950;-79
2023/11/25 05:59:16;;;;;;;0.90;0.90;;;2.90;1.00;;;;;;5068735;28;20206;-80
2023/11/25 06:05:08;;;;;;;1.30;1.30;;;2.80;1.00;;;;;;5081698;28;20371;-79
2023/11/25 06:08:09;;;;;;;0.95;0.95;;;2.90;1.00;;;;;;5087319;28;20406;-79
2023/11/25 06:13:56;;;;;;;;;;;2.90;1.00;;;;;;5076471;28;20214;-80
2023/11/25 06:19:45;;;;;;;;;;;2.80;1.00;;;;;;5070245;28;20433;-80
2023/11/25 06:22:21;;;;;;;;;;;2.80;1.00;;;;;;5072486;28;20280;-76
2023/11/25 06:28:13;;;;;;;;;;;2.80;1.00;;;;;;5090513;28;20214;-76
2023/11/25 06:31:20;;;;;;;2.60;2.50;;;2.80;1.00;;;;;;5090099;28;20537;-74
2023/11/25 06:33:58;;;;;;;;;;;2.80;1.00;;;;;;5093231;28;20162;-75
2023/11/25 06:36:26;;;;;;;2.40;2.30;;;2.90;1.00;;;;;;5084064;28;20914;-74
2023/11/25 06:39:04;;;;;;;0.40;0.40;;;2.80;1.00;;;;;;5084135;28;20768;-81
2023/11/25 06:41:43;;;;;;;;;;;;;;;;;;5079645;28;20260;-75
2023/11/25 06:49:36;;;;;;;0.40;0.40;;;2.70;1.00;;;;;;5106660;27;20040;-79
2023/11/25 06:52:37;;;;;;;0.50;0.50;;;2.70;1.00;;;;;;5087190;28;20761;-79
2023/11/25 06:55:04;;;;;;;0.80;0.80;;;2.70;1.00;;;;;;5100450;28;20366;-79
2023/11/25 06:57:30;;;;;;;0.60;0.60;;;2.80;1.00;;;;;;5090200;28;20436;-79
2023/11/25 07:00:14;;;;;;;0.50;0.50;;;2.90;1.00;;;;;;5094446;28;20530;-80
2023/11/25 07:02:50;;;;;;;0.50;0.50;;;;;;;;;;5093335;28;20400;-80
2023/11/25 07:05:57;;;;;;;0.40;0.40;;;3.00;1.00;;;;;;5088743;28;20749;-79
2023/11/25 07:08:27;;;;;;;0.50;0.50;;;3.10;1.00;;;;;;5081816;28;20379;-79
2023/11/25 07:11:14;;;;;;;0.55;0.55;;;3.20;1.00;;;;;;5090161;28;20398;-79
2023/11/25 07:13:56;;;;;;;0.70;0.70;;;;;;;;;;5090237;28;20477;-79
2023/11/25 07:16:22;;;;;;;;;;;3.50;1.00;;;;;;5088163;28;20390;-79
2023/11/25 07:19:04;;;;;;;;;;;3.60;1.00;;;;;;5089438;28;20194;-79
2023/11/25 07:21:31;;;;;;;;;;;3.60;1.00;;;;;;5072239;28;20158;-78
2023/11/25 07:27:19;;;;;;;;;;;3.90;1.00;;;;;;5067776;28;20270;-78
2023/11/25 07:30:00;;;;;;;0.90;0.90;;;4.00;1.00;;;;;;5075516;28;20168;-79
2023/11/25 07:32:26;;;;;;;;;;;4.20;1.00;;;;;;5085758;28;20365;-79
2023/11/25 07:35:06;;;;;;;;;;;4.20;1.00;;;;;;5082104;28;20171;-79
2023/11/25 07:37:38;;;;;;;;;;;4.30;1.00;;;;;;5087422;28;20192;-79
2023/11/25 07:40:38;;;;;;;0.65;0.65;;;4.40;1.00;;;;;;5089056;28;20250;-79
2023/11/25 07:43:08;;;;;;;0.70;0.70;;;4.40;1.00;;;;;;5090095;28;20403;-79
2023/11/25 07:46:13;;;;;;;1.60;1.40;;;4.50;1.00;;;;;;5089827;28;20394;-79
2023/11/25 07:48:50;;;;;;;0.90;0.90;;;4.60;1.00;;;;;;5089667;28;20524;-79
2023/11/25 07:51:18;;;;;;;0.90;0.90;;;4.60;1.00;;;;;;5089549;28;20423;-79
2023/11/25 07:53:43;;;;;;;1.05;1.05;;;4.70;1.00;;;;;;5089422;28;20896;-79
2023/11/25 07:56:14;;;;;;;1.50;1.50;;;4.70;1.00;;;;;;5089169;28;20420;-79
2023/11/25 07:58:50;;;;;;;0.80;0.80;;;4.80;1.00;;;;;;5088204;28;20505;-79
2023/11/25 08:01:37;;;;;;;0.80;0.80;;;5.00;1.00;;;;;;5085322;28;20406;-77
2023/11/25 08:04:04;;;;;;;0.85;0.85;;;5.10;1.00;;;;;;5068356;28;20470;-74
2023/11/25 08:06:30;;;;;;;0.80;0.80;;;5.10;1.00;;;;;;5075858;28;20470;-74
2023/11/25 08:09:02;;;;;;;1.05;1.05;;;5.00;1.00;;;;;;5075043;28;20414;-75
2023/11/25 08:11:34;;;;;;;0.70;0.70;;;5.10;1.00;;;;;;5073425;28;20904;-76
2023/11/25 08:14:20;;;;;;;0.60;0.60;;;5.20;1.00;;;;;;5067678;28;20402;-75
2023/11/25 08:16:56;;;;;;;0.70;0.70;;;5.10;1.00;;;;;;5073780;28;20397;-75
2023/11/25 08:19:22;;;;;;;0.60;0.60;;;5.10;1.00;;;;;;5074696;28;20862;-78
2023/11/25 08:22:02;;;;;;;0.70;0.70;;;5.00;1.00;;;;;;5075418;28;20497;-77
2023/11/25 08:24:44;;;;;;;1.05;1.05;;;5.00;1.00;;;;;;5072996;28;20394;-78
2023/11/25 08:27:11;;;;;;;1.70;1.60;;;;;;;;;;5075433;28;20878;-77
2023/11/25 08:29:39;;;;;;;8.40;4.75;;;4.90;1.00;;;;;;5075284;28;20401;-78
2023/11/25 08:32:05;;;;;;;0.80;0.80;;;4.90;1.00;;;;;;5072776;28;20411;-77
2023/11/25 08:34:32;;;;;;;4.25;3.55;;;5.00;1.00;;;;;;5080962;28;20401;-75
2023/11/25 08:37:08;;;;;;;1.05;1.05;;;4.90;1.00;;;;;;5081421;28;20447;-75
2023/11/25 08:39:35;;;;;;;0.95;0.95;;;4.90;1.00;;;;;;5074945;28;20430;-75
2023/11/25 08:42:09;;;;;;;1.70;1.60;;;4.90;1.00;;;;;;5074782;28;20424;-75
2023/11/25 08:44:36;;;;;;;1.00;1.00;;;4.90;1.00;;;;;;5064039;28;20781;-75
2023/11/25 08:47:02;;;;;;;1.00;1.00;;;4.90;1.00;;;;;;5071897;28;20480;-75
2023/11/25 08:49:32;;;;;;;1.30;1.30;;;4.90;1.00;;;;;;5075371;28;20917;-75
2023/11/25 08:51:58;;;;;;;0.80;0.80;;;4.80;1.00;;;;;;5074623;28;20497;-75
2023/11/25 08:54:24;;;;;;;1.05;1.05;;;4.80;1.00;;;;;;5074878;28;20481;-75
2023/11/25 08:56:52;;;;;;;0.85;0.85;;;4.90;1.00;;;;;;5074957;28;20377;-75
2023/11/25 08:59:19;;;;;;;1.05;1.05;;;4.80;1.00;;;;;;5074845;28;20037;-75
2023/11/25 09:01:57;;;;;;;1.45;1.45;;;4.90;1.00;;;;;;5074486;28;20912;-75
2023/11/25 09:04:42;;;;;;;1.40;1.35;;;4.80;1.00;;;;;;5061679;28;20385;-79
2023/11/25 09:07:44;;;;;;;4.00;3.65;;;4.70;1.00;;;;;;5072010;28;20429;-80
2023/11/25 09:10:33;;;;;;;4.20;3.80;;;;;;;;;;5067949;28;20417;-79
2023/11/25 09:13:03;;;;;;;4.90;4.50;;;4.90;1.00;;;;;;5071047;28;20187;-78
2023/11/25 09:16:13;;;;;;;1.30;1.30;;;4.80;1.00;;;;;;5075697;28;20211;-79
2023/11/25 09:18:40;;;;;;;1.05;1.05;;;4.90;1.00;;;;;;5071435;28;20499;-76
2023/11/25 09:21:26;;;;;;;2.00;1.95;;;4.90;1.00;;;;;;5072774;28;20406;-76
2023/11/25 09:24:08;;;;;;;9.50;5.60;;;5.10;1.00;;;;;;5073754;28;20391;-76
2023/11/25 09:26:44;;;;;;;2.10;2.00;;;5.30;1.00;;;;;;5072671;28;20944;-77
2023/11/25 09:29:45;;;;;;;4.40;3.10;;;5.80;1.00;;;;;;5073574;28;20395;-77
2023/11/25 09:32:11;;;;;;;2.85;2.60;;;6.20;1.00;;;;;;5073388;28;21030;-75
2023/11/25 09:34:39;;;;;;;1.05;1.05;;;6.20;1.00;;;;;;5074028;28;20400;-75
2023/11/25 09:37:07;;;;;;;1.85;1.75;;;;;;;;;;5081137;28;20421;-76
2023/11/25 09:39:32;;;;;;;50.50;22.45;;;6.00;1.00;;;;;;5073287;28;20571;-75
2023/11/25 09:42:02;;;;;;;13.90;8.10;;;6.00;1.00;;;;;;5072996;28;20258;-75
2023/11/25 09:44:32;;;;;;;1.15;1.15;;;6.00;1.00;;;;;;5073127;28;20023;-75
2023/11/25 09:47:02;;;;;;;11.90;6.90;;;6.00;1.00;;;;;;5073411;28;20398;-75
2023/11/25 09:49:33;;;;;;;12.80;7.20;;;;;;;;;;5073470;28;20365;-79
2023/11/25 09:52:06;;;;;;;6.25;4.20;;;6.00;1.00;;;;;;5073054;28;20223;-76
2023/11/25 09:54:39;;;;;;;11.80;6.55;;;6.10;1.00;;;;;;5073303;28;20407;-77
2023/11/25 09:57:06;;;;;;;5.00;3.10;;;;;;;;;;5073240;28;20177;-77
2023/11/25 09:59:32;;;;;;;;;;;6.40;1.00;;;;;;5072803;28;20442;-77
2023/11/25 10:01:58;;;;;;;;;;;;;;;;;;5073120;28;20230;-76
2023/11/25 10:04:26;;;;;;;;;;;6.30;1.00;;;;;;5072427;28;20451;-74
2023/11/25 10:06:53;;;;;;;;;;;6.20;1.00;;;;;;5073861;28;20158;-74
2023/11/25 10:09:21;;;;;;;2.65;2.55;;;6.40;1.00;;;;;;5068490;28;20360;-74
2023/11/25 10:11:47;;;;;;;;;;;6.40;1.00;;;;;;5069211;28;20399;-73
2023/11/25 10:14:21;;;;;;;;;;;6.20;1.00;;;;;;5066309;28;20389;-75
2023/11/25 10:16:50;;;;;;;4.10;3.80;;;6.20;1.00;;;;;;5073232;28;20355;-76
2023/11/25 10:19:20;;;;;;;1.25;1.25;;;6.20;1.00;;;;;;5072898;28;20032;-76
2023/11/25 10:21:51;;;;;;;1.80;1.80;;;6.30;1.00;;;;;;5070934;28;20501;-75
2023/11/25 10:24:20;;;;;;;0.80;0.80;;;6.40;1.00;;;;;;5072234;28;20398;-74
2023/11/25 10:26:48;;;;;;;0.90;0.90;;;6.60;1.00;;;;;;5071978;28;20924;-74
2023/11/25 10:29:13;;;;;;;1.05;1.05;;;6.60;1.00;;;;;;5076035;28;20413;-75
2023/11/25 10:31:56;;;;;;;;;;;;;;;;;;5070488;28;20521;-75
2023/11/25 10:34:26;;;;;;;;;;;6.60;1.00;;;;;;5089745;28;20183;-76
2023/11/25 10:36:52;;;;;;;;;;;6.70;1.00;;;;;;5073465;28;19945;-74
2023/11/25 10:39:22;;;;;;;;;;;6.70;1.00;;;;;;5079611;28;20025;-74
2023/11/25 10:41:51;;;;;;;;;;;6.80;1.00;;;;;;5073909;28;20324;-74
2023/11/25 10:44:17;;;;;;;;;;;6.60;1.00;;;;;;5059997;28;19911;-74
2023/11/25 10:46:44;;;;;;;;;;;6.50;1.00;;;;;;5072076;28;19930;-74
2023/11/25 10:49:09;;;;;;;;;;;6.50;1.00;;;;;;5064198;28;19917;-74
2023/11/25 10:51:40;;;;;;;;;;;6.40;1.00;;;;;;5102287;28;19916;-75
2023/11/25 10:54:15;;;;;;;;;;;6.20;1.00;;;;;;5064054;28;20033;-75
2023/11/25 10:56:44;;;;;;;;;;;6.10;1.00;;;;;;5071468;28;20405;-74
2023/11/25 10:59:16;;;;;;;;;;;6.00;1.00;;;;;;5073430;28;19908;-75
2023/11/25 11:01:43;;;;;;;;;;;5.90;1.00;;;;;;5077579;28;19956;-74
2023/11/25 11:04:13;;;;;;;;;;;5.80;1.00;;;;;;5075716;28;19908;-74
2023/11/25 11:06:55;;;;;;;;;;;5.90;1.00;;;;;;5073540;28;19904;-75
2023/11/25 11:09:25;;;;;;;;;;;6.00;1.00;;;;;;5072778;28;19904;-75
2023/11/25 11:11:57;;;;;;;;;;;6.10;1.00;;;;;;5072312;28;19905;-74
2023/11/25 11:14:43;;;;;;;;;;;6.10;1.00;;;;;;5074935;28;19958;-74
2023/11/25 11:17:20;;;;;;;;;;;6.20;1.00;;;;;;5069058;28;19946;-74
2023/11/25 11:19:56;;;;;;;;;;;6.30;1.00;;;;;;5071583;28;19912;-74
2023/11/25 11:22:22;;;;;;;;;;;6.20;1.00;;;;;;5066150;28;20327;-75
2023/11/25 11:25:18;;;;;;;;;;;6.20;1.00;;;;;;5069224;28;19954;-74
2023/11/25 11:27:55;;;;;;;;;;;6.20;1.00;;;;;;5028517;28;19913;-75
2023/11/25 11:30:33;;;;;;;;;;;6.10;1.00;;;;;;5030924;28;19959;-76
2023/11/25 11:32:59;;;;;;;;;;;6.10;1.00;;;;;;5031011;28;19909;-76
2023/11/25 11:35:37;;;;;;;;;;;5.90;1.00;;;;;;5032334;28;19905;-75
2023/11/25 11:38:32;;;;;;;;;;;6.00;1.00;;;;;;5034825;28;19913;-76
2023/11/25 11:40:58;;;;;;;;;;;6.00;1.00;;;;;;5026829;28;19944;-74
2023/11/25 11:43:24;;;;;;;;;;;6.10;1.00;;;;;;5033062;28;19913;-73
2023/11/25 11:45:57;;;;;;;;;;;6.10;1.00;;;;;;5034623;28;19920;-75
2023/11/25 11:48:29;;;;;;;;;;;6.30;1.00;;;;;;5034679;28;19955;-74
2023/11/25 11:50:54;;;;;;;;;;;6.20;1.00;;;;;;5035007;28;19905;-75
2023/11/25 11:53:21;;;;;;;;;;;6.20;1.00;;;;;;5027742;28;19996;-76
2023/11/25 11:55:47;;;;;;;;;;;;;;;;;;5034291;28;19912;-75
2023/11/25 11:58:13;;;;;;;;;;;6.20;1.00;;;;;;5034378;28;19909;-73
2023/11/25 12:00:46;;;;;;;;;;;6.20;1.00;;;;;;5041360;28;20186;-73
2023/11/25 12:03:17;;;;;;;;;;;6.20;1.00;;;;;;5037807;28;20154;-72
2023/11/25 12:05:51;;;;;;;;;;;6.40;1.00;;;;;;5073918;28;19912;-73
2023/11/25 12:08:17;;;;;;;;;;;6.60;1.00;;;;;;5075963;28;19908;-72
2023/11/25 12:10:43;;;;;;;;;;;6.70;1.00;;;;;;5075970;28;19911;-72
2023/11/25 12:13:10;;;;;;;;;;;6.70;1.00;;;;;;5075722;28;19996;-72
2023/11/25 12:15:36;;;;;;;;;;;6.70;1.00;;;;;;5075879;28;19908;-72
2023/11/25 12:18:02;;;;;;;;;;;6.70;1.00;;;;;;5070091;28;19956;-72
2023/11/25 12:20:29;;;;;;;;;;;6.80;1.00;;;;;;5073053;28;19927;-72
2023/11/25 12:22:55;;;;;;;;;;;6.90;1.00;;;;;;5073532;28;19945;-72
2023/11/25 12:25:22;;;;;;;;;;;6.90;1.00;;;;;;5073409;28;19917;-72
2023/11/25 12:28:00;;;;;;;;;;;6.90;1.00;;;;;;5075511;28;19904;-72
2023/11/25 12:30:26;;;;;;;;;;;7.00;1.00;;;;;;5068120;28;19981;-72
2023/11/25 12:32:52;;;;;;;;;;;6.80;1.00;;;;;;5066694;28;19905;-72
2023/11/25 12:35:18;;;;;;;;;;;6.60;1.00;;;;;;5079675;28;19915;-74
2023/11/25 12:37:44;;;;;;;;;;;6.60;1.00;;;;;;5071134;28;19909;-78
2023/11/25 12:40:26;;;;;;;;;;;6.50;1.00;;;;;;5076096;28;19904;-78
2023/11/25 12:43:05;;;;;;;;;;;6.60;1.00;;;;;;5073057;28;20255;-78
2023/11/25 12:46:02;;;;;;;;;;;6.60;1.00;;;;;;5076460;28;20218;-78
2023/11/25 12:48:32;;;;;;;;;;;6.30;1.00;;;;;;5075178;28;20173;-78
2023/11/25 12:51:04;;;;;;;;;;;6.20;1.00;;;;;;5075893;28;20152;-72
2023/11/25 12:53:29;;;;;;;;;;;6.20;1.00;;;;;;5076289;28;20282;-72
2023/11/25 12:55:57;;;;;;;;;;;;;;;;;;5084885;28;20276;-72
2023/11/25 12:58:26;;;;;;;;;;;6.00;1.00;;;;;;5086112;28;20177;-72
2023/11/25 13:00:51;;;;;;;;;;;6.00;1.00;;;;;;5065208;28;20154;-72
2023/11/25 13:03:21;;;;;;;;;;;6.20;1.00;;;;;;5068346;28;20153;-72
2023/11/25 13:05:50;;;;;;;;;;;6.10;1.00;;;;;;5073788;28;20184;-79
2023/11/25 13:08:44;;;;;;;;;;;6.10;1.00;;;;;;5075365;28;20153;-78
2023/11/25 13:14:21;;;;;;;;;;;6.20;1.00;;;;;;5074817;28;20251;-78
2023/11/25 13:16:50;;;;;;;;;;;;;;;;;;5073117;28;20156;-78
2023/11/25 13:19:33;;;;;;;;;;;6.30;1.00;;;;;;5074816;28;20173;-79
2023/11/25 13:21:59;;;;;;;;;;;6.40;1.00;;;;;;5075097;28;20149;-79
2023/11/25 13:24:25;;;;;;;;;;;6.30;1.00;;;;;;5071186;28;20184;-78
2023/11/25 13:27:08;;;;;;;;;;;6.30;1.00;;;;;;5064522;28;20254;-79
2023/11/25 13:29:38;;;;;;;;;;;6.30;1.00;;;;;;5074405;28;20157;-78
2023/11/25 13:32:08;;;;;;;;;;;6.60;1.00;;;;;;5061716;28;20158;-78
2023/11/25 13:34:33;;;;;;;;;;;6.60;1.00;;;;;;5074764;28;20153;-79
2023/11/25 13:36:59;;;;;;;;;;;6.60;1.00;;;;;;5072191;28;20175;-72
2023/11/25 13:39:27;;;;;;;;;;;;;;;;;;5073515;28;20200;-72
2023/11/25 13:41:53;;;;;;;;;;;6.50;1.00;;;;;;5077680;28;20167;-72
2023/11/25 13:44:19;;;;;;;;;;;6.60;1.00;;;;;;5070707;28;20605;-72
2023/11/25 13:46:44;;;;;;;;;;;6.60;1.00;;;;;;5068945;28;20531;-72
2023/11/25 13:49:10;;;;;;;;;;;6.60;1.00;;;;;;5074075;28;20169;-72
2023/11/25 13:51:38;;;;;;;;;;;6.60;1.00;;;;;;5080275;28;20188;-78
2023/11/25 13:54:09;;;;;;;;;;;6.50;1.00;;;;;;5074473;28;20153;-75
2023/11/25 13:56:51;;;;;;;;;;;;;;;;;;5071649;28;20157;-76
2023/11/25 13:59:17;;;;;;;;;;;6.50;1.00;;;;;;5072230;28;20169;-76
2023/11/25 14:01:50;;;;;;;;;;;6.50;1.00;;;;;;5073643;28;20160;-76
2023/11/25 14:04:15;;;;;;;;;;;6.60;1.00;;;;;;5069781;28;20156;-75
2023/11/25 14:07:09;;;;;;;;;;;6.40;1.00;;;;;;5072463;28;20149;-75
2023/11/25 14:09:36;;;;;;;;;;;6.50;1.00;;;;;;5072016;28;20615;-75
2023/11/25 14:12:02;;;;;;;;;;;6.60;1.00;;;;;;5073603;28;20163;-74
2023/11/25 14:14:28;;;;;;;;;;;6.70;1.00;;;;;;5069922;28;20539;-73
2023/11/25 14:16:55;;;;;;;;;;;6.70;1.00;;;;;;5069448;28;20161;-73
2023/11/25 14:19:32;;;;;;;;;;;6.80;1.00;;;;;;5064048;28;20197;-73
2023/11/25 14:21:58;;;;;;;;;;;6.80;1.00;;;;;;5073671;28;20237;-74
2023/11/25 14:24:24;;;;;;;;;;;6.80;1.00;;;;;;5069149;28;20563;-74
2023/11/25 14:26:51;;;;;;;;;;;6.80;1.00;;;;;;5071551;28;20188;-74
2023/11/25 14:29:17;;;;;;;;;;;6.80;1.00;;;;;;5069883;28;20149;-74
2023/11/25 14:31:44;;;;;;;;;;;6.90;1.00;;;;;;5070105;28;20146;-74
2023/11/25 14:34:14;;;;;;;;;;;6.90;1.00;;;;;;5064378;28;20264;-74
2023/11/25 14:36:42;;;;;;;;;;;6.90;1.00;;;;;;5073872;28;20152;-73
2023/11/25 14:39:18;;;;;;;;;;;6.90;1.00;;;;;;5072556;28;20169;-74
2023/11/25 14:41:47;;;;;;;;;;;6.90;1.00;;;;;;5072021;28;20149;-74
2023/11/25 14:44:20;;;;;;;;;;;;;;;;;;5073599;28;20156;-74
2023/11/25 14:46:48;;;;;;;;;;;7.10;1.00;;;;;;5073414;28;20183;-73
2023/11/25 14:49:20;;;;;;;;;;;7.10;1.00;;;;;;5073268;28;20173;-74
2023/11/25 14:51:46;;;;;;;;;;;7.00;1.00;;;;;;5071350;28;20157;-73
2023/11/25 14:54:11;;;;;;;;;;;7.10;1.00;;;;;;5067728;28;20556;-72
2023/11/25 14:56:37;;;;;;;;;;;7.00;1.00;;;;;;5066908;28;20200;-72
2023/11/25 14:59:04;;;;;;;;;;;7.00;1.00;;;;;;5068083;28;20217;-72
2023/11/25 15:01:31;;;;;;;;;;;6.90;1.00;;;;;;5041104;28;25081;-72
2023/11/25 15:03:56;;;;;;;;;;;7.00;1.00;;;;;;5066254;28;20239;-72
2023/11/25 15:06:23;;;;;;;;;;;6.90;1.00;;;;;;5064502;28;20239;-72
2023/11/25 15:08:49;;;;;;;;;;;6.90;1.00;;;;;;5065228;28;20160;-72
2023/11/25 15:11:15;;;;;;;;;;;6.80;1.00;;;;;;5067276;28;20156;-72
2023/11/25 15:13:40;;;;;;;;;;;6.80;1.00;;;;;;5076244;28;20540;-71
2023/11/25 15:16:06;;;;;;;;;;;6.80;1.00;;;;;;5069658;28;20156;-72
2023/11/25 15:18:32;;;;;;;;;;;6.80;1.00;;;;;;5079144;28;20230;-72
2023/11/25 15:21:01;;;;;;;;;;;6.80;1.00;;;;;;5076989;28;20205;-72
2023/11/25 15:23:27;;;;;;;;;;;6.70;1.00;;;;;;5082224;28;20172;-72
2023/11/25 15:25:52;;;;;;;;;;;6.60;1.00;;;;;;5106401;28;20523;-72
2023/11/25 15:28:20;;;;;;;;;;;6.60;1.00;;;;;;5072236;28;20506;-72
2023/11/25 15:30:46;;;;;;;1.05;0.95;;;6.60;1.00;;;;;;5076102;28;20200;-72
2023/11/25 15:33:15;;;;;;;;;;;6.60;1.00;;;;;;5075776;28;20733;-72
2023/11/25 15:35:41;;;;;;;0.65;0.65;;;6.60;1.00;;;;;;5060289;28;20203;-72
2023/11/25 15:38:06;;;;;;;;;;;6.60;1.00;;;;;;5070233;28;20431;-75
2023/11/25 15:40:32;;;;;;;0.60;0.60;;;6.60;1.00;;;;;;5074943;28;20441;-75
2023/11/25 15:43:02;;;;;;;;;;;6.60;1.00;;;;;;5075127;28;20025;-75
2023/11/25 15:45:28;;;;;;;0.70;0.70;;;;;;;;;;5063908;28;20348;-75
2023/11/25 15:47:54;;;;;;;;;;;6.30;1.00;;;;;;5057367;28;20479;-75
2023/11/25 15:50:20;;;;;;;0.60;0.60;;;6.30;1.00;;;;;;5074760;28;20265;-75
2023/11/25 15:53:08;;;;;;;;;;;6.20;1.00;;;;;;5076168;28;20027;-77
2023/11/25 15:55:35;;;;;;;;;;;6.20;1.00;;;;;;5069583;28;20028;-78
2023/11/25 15:58:11;;;;;;;;;;;6.10;1.00;;;;;;5073646;28;20218;-77
2023/11/25 16:00:39;;;;;;;;;;;6.00;1.00;;;;;;5074088;28;20214;-78
2023/11/25 16:03:08;;;;;;;;;;;5.90;1.00;;;;;;5074899;28;20630;-78
2023/11/25 16:05:34;;;;;;;;;;;5.80;1.00;;;;;;5076724;28;20156;-77
2023/11/25 16:08:03;;;;;;;;;;;5.80;1.00;;;;;;5076547;28;20149;-78
2023/11/25 16:11:02;;;;;;;;;;;5.70;1.00;;;;;;5076750;28;20145;-77
2023/11/25 16:13:32;;;;;;;;;;;5.70;1.00;;;;;;5076237;28;20839;-76
2023/11/25 16:16:11;;;;;;;;;;;5.80;1.00;;;;;;5076083;28;20160;-77
2023/11/25 16:18:56;;;;;;;;;;;5.80;1.00;;;;;;5073014;28;20163;-80
2023/11/25 16:21:26;;;;;;;;;;;5.70;1.00;;;;;;5073005;28;20149;-79
2023/11/25 16:23:52;;;;;;;;;;;;;;;;;;5072499;28;20156;-72
2023/11/25 16:26:18;;;;;;;;;;;5.80;1.00;;;;;;5076063;28;20604;-73
2023/11/25 16:28:43;;;;;;;;;;;5.80;1.00;;;;;;5075226;28;20164;-73
2023/11/25 16:31:09;;;;;;;;;;;5.90;1.00;;;;;;5076855;28;20293;-73
2023/11/25 16:33:35;;;;;;;;;;;5.90;1.00;;;;;;5074837;28;20180;-74
2023/11/25 16:36:01;;;;;;;;;;;5.90;1.00;;;;;;5075101;28;20179;-72
2023/11/25 16:38:30;;;;;;;;;;;5.90;1.00;;;;;;5074440;28;20200;-72
2023/11/25 16:41:08;;;;;;;;;;;6.00;1.00;;;;;;5066755;28;20691;-77
2023/11/25 16:46:15;;;;;;;;;;;5.90;1.00;;;;;;5074283;28;20161;-75
2023/11/25 16:48:41;;;;;;;;;;;6.00;1.00;;;;;;5075619;28;20194;-74
2023/11/25 16:54:26;;;;;;;;;;;5.90;1.00;;;;;;5069366;28;20144;-81
2023/11/25 16:56:52;;;;;;;;;;;5.80;1.00;;;;;;5062592;28;20152;-81
2023/11/25 16:59:20;;;;;;;;;;;5.80;1.00;;;;;;5072110;28;20180;-81
2023/11/25 17:02:14;;;;;;;;;;;5.70;1.00;;;;;;5071676;28;20220;-81
2023/11/25 17:04:44;;;;;;;;;;;5.60;1.00;;;;;;5071232;28;20159;-81
2023/11/25 17:07:20;;;;;;;;;;;5.50;1.00;;;;;;5074851;28;20254;-81
2023/11/25 17:09:46;;;;;;;;;;;5.50;1.00;;;;;;5075296;28;20145;-71
2023/11/25 17:12:12;;;;;;;;;;;5.40;1.00;;;;;;5073493;28;20145;-72
2023/11/25 17:14:39;;;;;;;;;;;5.50;1.00;;;;;;5067190;28;20236;-71
2023/11/25 17:17:08;;;;;;;;;;;5.40;1.00;;;;;;5065304;28;20239;-72
2023/11/25 17:19:36;;;;;;;;;;;5.40;1.00;;;;;;5071267;28;20279;-72
2023/11/25 17:22:03;;;;;;;;;;;5.50;1.00;;;;;;5062573;28;20203;-71
2023/11/25 17:24:38;;;;;;;;;;;;;;;;;;5070085;28;20876;-77
2023/11/25 17:27:04;;;;;;;;;;;5.50;1.00;;;;;;5066646;28;20180;-77
2023/11/25 17:33:26;;;;;;;2.20;2.10;;;5.40;1.00;;;;;;5044360;28;20245;-76
2023/11/25 17:36:14;;;;;;;0.80;0.80;;;5.40;1.00;;;;;;5043666;28;20441;-76
2023/11/25 17:38:44;;;;;;;;;;;5.40;1.00;;;;;;5045335;28;20443;-76
2023/11/25 17:41:11;;;;;;;;;;;5.30;1.00;;;;;;5054568;28;20175;-72
2023/11/25 17:43:37;;;;;;;0.30;0.30;;;5.30;1.00;;;;;;5047985;28;20237;-72
2023/11/25 17:46:03;;;;;;;;;;;5.30;1.00;;;;;;5046577;28;20257;-71
2023/11/25 17:48:28;;;;;;;;;;;5.40;1.00;;;;;;5048199;28;20176;-71
2023/11/25 17:50:54;;;;;;;;;;;;;;;;;;5034967;28;20197;-71
2023/11/25 17:53:20;;;;;;;;;;;5.40;1.00;;;;;;5052449;28;20191;-71
2023/11/25 17:55:46;;;;;;;;;;;;;;;;;;5054107;28;20157;-71
2023/11/25 17:58:12;;;;;;;;;;;5.50;1.00;;;;;;5048710;28;20181;-72
2023/11/25 18:00:38;;;;;;;;;;;5.50;1.00;;;;;;5046161;28;20158;-71
2023/11/25 18:03:08;;;;;;;;;;;5.50;1.00;;;;;;5053005;28;20426;-72
2023/11/25 18:05:35;;;;;;;;;;;5.50;1.00;;;;;;5053546;28;19904;-72
2023/11/25 18:08:08;;;;;;;;;;;5.60;1.00;;;;;;5052354;28;20149;-72
2023/11/25 18:10:34;;;;;;;;;;;5.70;1.00;;;;;;5052656;28;20207;-72